createdAt,value
2024-02-09T00:02:28.432Z,152392.75
2024-02-09T00:04:58.316Z,152419.88
2024-02-09T00:07:30.908Z,152427.66
2024-02-09T00:10:01.021Z,152418.59
2024-02-09T00:12:31.283Z,152427.66
2024-02-09T00:15:01.584Z,152439.28
2024-02-09T00:17:34.210Z,152434.09
2024-02-09T00:20:08.899Z,152444.44
2024-02-09T00:22:42.163Z,152472.94
2024-02-09T00:25:12.850Z,152480.66
2024-02-09T00:27:44.705Z,152497.50
2024-02-09T00:30:15.075Z,152493.63
2024-02-09T00:32:45.009Z,152507.84
2024-02-09T00:35:15.007Z,152507.84
2024-02-09T00:37:47.806Z,152509.13
2024-02-09T00:40:18.040Z,152525.91
2024-02-09T00:42:47.948Z,152522.06
2024-02-09T00:45:18.032Z,152523.34
2024-02-09T00:47:48.650Z,152520.75
2024-02-09T00:50:20.225Z,152538.84
2024-02-09T00:52:55.973Z,152531.13
2024-02-09T00:55:30.720Z,152528.50
2024-02-09T00:58:02.755Z,152533.69
2024-02-09T01:00:34.281Z,152532.41
2024-02-09T01:03:05.454Z,152541.47
2024-02-09T01:05:37.383Z,152529.78
2024-02-09T01:08:10.186Z,152547.91
2024-02-09T01:10:40.796Z,152551.81
2024-02-09T01:13:23.268Z,152577.66
2024-02-09T01:16:05.713Z,152563.41
2024-02-09T01:18:48.165Z,152575.03
2024-02-09T01:21:30.544Z,152580.22
2024-02-09T01:24:15.473Z,152598.34
2024-02-09T01:26:57.752Z,152582.81
2024-02-09T01:29:40.088Z,152600.94
2024-02-09T01:32:22.832Z,152577.66
2024-02-09T01:35:06.435Z,152575.03
2024-02-09T01:37:48.816Z,152567.31
2024-02-09T01:40:33.971Z,152558.25
2024-02-09T01:43:17.121Z,152566.03
2024-02-09T01:46:04.958Z,152560.88
2024-02-09T01:48:47.732Z,152566.03
2024-02-09T01:51:31.067Z,152555.69
2024-02-09T01:54:13.942Z,152536.28
2024-02-09T01:56:59.012Z,152514.28
2024-02-09T01:59:41.668Z,152498.78
2024-02-09T02:02:24.050Z,152482.00
2024-02-09T02:05:09.541Z,152493.63
2024-02-09T02:07:53.718Z,152478.09
2024-02-09T02:10:35.802Z,152475.50
2024-02-09T02:13:20.720Z,152494.91
2024-02-09T02:16:12.500Z,152494.91
2024-02-09T02:18:54.983Z,152494.91
2024-02-09T02:21:37.350Z,152502.66
2024-02-09T02:24:20.341Z,152511.72
2024-02-09T02:27:04.471Z,152564.69
2024-02-09T02:29:51.649Z,152576.38
2024-02-09T02:32:34.028Z,152588.00
2024-02-09T02:35:16.424Z,152576.38
2024-02-09T02:37:58.759Z,152589.28
2024-02-09T02:40:41.185Z,152566.03
2024-02-09T02:43:08.405Z,152588.00
2024-02-09T02:45:43.497Z,152578.94
2024-02-09T02:48:27.042Z,152584.09
2024-02-09T02:51:22.827Z,152551.81
2024-02-09T02:54:05.090Z,152537.56
2024-02-09T02:56:47.424Z,152545.31
2024-02-09T02:59:29.803Z,152534.97
2024-02-09T03:02:14.742Z,152540.13
2024-02-09T03:04:44.902Z,152541.47
2024-02-09T03:07:49.630Z,152525.91
2024-02-09T03:10:05.293Z,152541.47
2024-02-09T03:12:35.196Z,152544.03
2024-02-09T03:15:05.485Z,152547.91
2024-02-09T03:17:38.069Z,152542.75
2024-02-09T03:20:09.386Z,152544.03
2024-02-09T03:22:40.021Z,152531.13
2024-02-09T03:25:10.284Z,152520.75
2024-02-09T03:27:41.819Z,152522.06
2024-02-09T03:30:12.966Z,152518.19
2024-02-09T03:32:45.967Z,152494.91
2024-02-09T03:35:16.516Z,152466.38
2024-02-09T03:37:48.315Z,152438.00
2024-02-09T03:40:18.664Z,152443.16
2024-02-09T03:42:48.631Z,152462.56
2024-02-09T03:45:19.640Z,152459.94
2024-02-09T03:47:52.573Z,152476.81
2024-02-09T03:50:22.472Z,152461.22
2024-02-09T03:52:52.427Z,152457.38
2024-02-09T03:55:22.459Z,152470.31
2024-02-09T03:57:52.367Z,152483.28
2024-02-09T04:00:22.625Z,152469.06
2024-02-09T04:02:57.720Z,152474.22
2024-02-09T04:05:31.716Z,152488.44
2024-02-09T04:08:05.740Z,152474.22
2024-02-09T04:10:43.609Z,152469.06
2024-02-09T04:13:16.414Z,152461.22
2024-02-09T04:15:49.087Z,152458.66
2024-02-09T04:18:21.644Z,152474.22
2024-02-09T04:20:51.609Z,152438.00
2024-02-09T04:23:21.508Z,152445.72
2024-02-09T04:25:51.499Z,152456.06
2024-02-09T04:28:21.555Z,152439.28
2024-02-09T04:30:51.486Z,152444.44
2024-02-09T04:33:25.477Z,152458.66
2024-02-09T04:35:59.883Z,152463.84
2024-02-09T04:38:29.996Z,152447.03
2024-02-09T04:40:59.993Z,152470.31
2024-02-09T04:43:29.961Z,152463.84
2024-02-09T04:46:00.043Z,152458.66
2024-02-09T04:48:32.746Z,152444.44
2024-02-09T04:51:02.683Z,152434.09
2024-02-09T04:53:32.757Z,152436.66
2024-02-09T04:56:02.726Z,152427.66
2024-02-09T04:58:32.881Z,152419.88
2024-02-09T05:01:03.013Z,152423.75
2024-02-09T05:03:35.603Z,152387.53
2024-02-09T05:06:05.624Z,152368.22
2024-02-09T05:08:35.621Z,152361.72
2024-02-09T05:11:06.392Z,152353.97
2024-02-09T05:13:38.875Z,152322.94
2024-02-09T05:16:10.391Z,152337.16
2024-02-09T05:18:42.952Z,152326.81
2024-02-09T05:21:12.969Z,152333.31
2024-02-09T05:23:43.167Z,152324.25
2024-02-09T05:26:13.951Z,152310.03
2024-02-09T05:28:48.368Z,152325.53
2024-02-09T05:31:24.529Z,152353.97
2024-02-09T05:33:57.079Z,152360.44
2024-02-09T05:36:27.966Z,152368.22
2024-02-09T05:39:00.383Z,152343.66
2024-02-09T05:41:31.989Z,152322.94
2024-02-09T05:44:02.520Z,152308.75
2024-02-09T05:46:32.916Z,152301.00
2024-02-09T05:49:08.767Z,152303.56
2024-02-09T05:51:38.899Z,152321.66
2024-02-09T05:54:08.797Z,152308.75
2024-02-09T05:56:38.802Z,152308.75
2024-02-09T05:59:09.211Z,152321.66
2024-02-09T06:01:39.826Z,152342.31
2024-02-09T06:04:12.534Z,152357.81
2024-02-09T06:06:46.486Z,152361.72
2024-02-09T06:09:16.620Z,152374.66
2024-02-09T06:11:46.566Z,152399.22
2024-02-09T06:14:18.228Z,152410.81
2024-02-09T06:16:48.856Z,152434.09
2024-02-09T06:19:25.212Z,152480.66
2024-02-09T06:21:57.124Z,152494.91
2024-02-09T06:24:27.223Z,152511.72
2024-02-09T06:26:58.341Z,152513.00
2024-02-09T06:29:32.607Z,152532.41
2024-02-09T06:32:05.282Z,152534.97
2024-02-09T06:34:37.994Z,152541.47
2024-02-09T06:37:08.421Z,152528.50
2024-02-09T06:39:38.500Z,152533.69
2024-02-09T06:42:08.669Z,152518.19
2024-02-09T06:44:44.112Z,152505.22
2024-02-09T06:47:14.271Z,152507.84
2024-02-09T06:49:48.772Z,152513.00
2024-02-09T06:52:19.570Z,152503.94
2024-02-09T06:54:49.491Z,152513.00
2024-02-09T06:57:23.622Z,152516.91
2024-02-09T06:59:54.833Z,152507.84
2024-02-09T07:02:24.890Z,152500.06
2024-02-09T07:05:02.581Z,152500.06
2024-02-09T07:07:34.315Z,152502.66
2024-02-09T07:10:04.438Z,152513.00
2024-02-09T07:12:34.431Z,152523.34
2024-02-09T07:15:07.357Z,152513.00
2024-02-09T07:17:37.362Z,152513.00
2024-02-09T07:20:11.740Z,152515.56
2024-02-09T07:22:41.910Z,152529.78
2024-02-09T07:25:12.358Z,152511.72
2024-02-09T07:27:42.323Z,152509.13
2024-02-09T07:30:14.392Z,152513.00
2024-02-09T07:32:44.311Z,152525.91
2024-02-09T07:35:17.145Z,152525.91
2024-02-09T07:37:47.189Z,152513.00
2024-02-09T07:40:20.378Z,152522.06
2024-02-09T07:42:50.508Z,152536.28
2024-02-09T07:48:16.008Z,152580.22
2024-02-09T07:50:52.837Z,152573.75
2024-02-09T07:53:22.835Z,152582.81
2024-02-09T07:55:58.865Z,152589.28
2024-02-09T07:58:29.609Z,152600.94
2024-02-09T08:00:59.655Z,152590.59
2024-02-09T08:03:29.583Z,152573.75
2024-02-09T08:06:02.150Z,152588.00
2024-02-09T08:08:32.084Z,152595.78
2024-02-09T08:11:01.960Z,152589.28
2024-02-09T08:13:32.426Z,152585.44
2024-02-09T08:16:02.409Z,152597.06
2024-02-09T08:18:33.302Z,152613.84
2024-02-09T08:21:05.969Z,152621.63
2024-02-09T08:23:35.917Z,152629.34
2024-02-09T08:26:07.839Z,152656.53
2024-02-09T08:28:39.900Z,152692.75
2024-02-09T08:31:12.302Z,152735.47
2024-02-09T08:33:44.976Z,152796.25
2024-02-09T08:36:18.664Z,152863.56
2024-02-09T08:38:48.654Z,152928.28
2024-02-09T08:41:16.107Z,153060.38
2024-02-09T08:43:46.108Z,153220.97
2024-02-09T08:46:16.361Z,153289.63
2024-02-09T08:48:46.369Z,153336.28
2024-02-09T08:51:18.983Z,153392.09
2024-02-09T08:53:50.261Z,153427.06
2024-02-09T08:56:21.341Z,153468.53
2024-02-09T08:58:51.435Z,153486.69
2024-02-09T09:01:21.504Z,153519.09
2024-02-09T09:03:51.442Z,153521.69
2024-02-09T09:06:25.108Z,153524.28
2024-02-09T09:08:56.179Z,153528.16
2024-02-09T09:11:26.052Z,153546.34
2024-02-09T09:13:56.043Z,153547.63
2024-02-09T09:16:26.258Z,153547.63
2024-02-09T09:18:56.315Z,153546.34
2024-02-09T09:21:28.837Z,153535.97
2024-02-09T09:24:02.783Z,153591.72
2024-02-09T09:26:32.878Z,153593.00
2024-02-09T09:29:03.079Z,153637.09
2024-02-09T09:31:33.706Z,153663.03
2024-02-09T09:34:05.062Z,153691.56
2024-02-09T09:36:37.888Z,153715.00
2024-02-09T09:39:08.315Z,153721.47
2024-02-09T09:41:42.234Z,153692.84
2024-02-09T09:44:12.320Z,153727.94
2024-02-09T09:46:46.698Z,153727.94
2024-02-09T09:49:17.983Z,153739.63
2024-02-09T09:51:53.840Z,153748.72
2024-02-09T09:54:26.210Z,153766.84
2024-02-09T09:56:57.762Z,153770.75
2024-02-09T09:59:28.001Z,153796.69
2024-02-09T10:01:58.946Z,153808.41
2024-02-09T10:04:29.298Z,153836.91
2024-02-09T10:07:03.067Z,153831.72
2024-02-09T10:09:33.042Z,153846.00
2024-02-09T10:12:07.885Z,153840.81
2024-02-09T10:14:41.073Z,153834.34
2024-02-09T10:17:13.073Z,153849.91
2024-02-09T10:19:44.106Z,153852.47
2024-02-09T10:22:23.934Z,153833.06
2024-02-09T10:24:56.920Z,153834.34
2024-02-09T10:27:26.976Z,153825.25
2024-02-09T10:29:58.768Z,153862.91
2024-02-09T10:32:29.611Z,153869.38
2024-02-09T10:34:59.697Z,153881.03
2024-02-09T10:37:32.856Z,153884.94
2024-02-09T10:40:04.041Z,153888.84
2024-02-09T10:42:38.072Z,153894.03
2024-02-09T10:45:16.974Z,153904.41
2024-02-09T10:47:55.793Z,153901.81
2024-02-09T10:50:30.363Z,153899.22
2024-02-09T10:53:08.230Z,153914.81
2024-02-09T10:55:43.621Z,153894.03
2024-02-09T10:58:19.714Z,153887.56
2024-02-09T11:00:50.469Z,153886.22
2024-02-09T11:03:21.413Z,153894.03
2024-02-09T11:05:51.940Z,153874.56
2024-02-09T11:08:28.525Z,153875.84
2024-02-09T11:11:28.949Z,153865.47
2024-02-09T11:14:13.061Z,153859.00
2024-02-09T11:16:59.957Z,153851.19
2024-02-09T11:19:31.382Z,153836.91
2024-02-09T11:22:02.867Z,153859.00
2024-02-09T11:24:35.873Z,153848.63
2024-02-09T11:27:06.664Z,153852.47
2024-02-09T11:29:39.169Z,153859.00
2024-02-09T11:32:09.962Z,153873.28
2024-02-09T11:34:40.778Z,153886.22
2024-02-09T11:37:11.378Z,153881.03
2024-02-09T11:39:56.182Z,153884.94
2024-02-09T11:42:35.509Z,153875.84
2024-02-09T11:45:05.992Z,153897.94
2024-02-09T11:47:37.490Z,153910.91
2024-02-09T11:50:08.372Z,153904.41
2024-02-09T11:52:41.910Z,153933.00
2024-02-09T11:55:22.301Z,153945.94
2024-02-09T12:00:55.465Z,153933.00
2024-02-09T12:03:26.009Z,153943.38
2024-02-09T12:06:14.024Z,153964.13
2024-02-09T12:08:44.440Z,153966.75
2024-02-09T12:11:20.461Z,153956.31
2024-02-09T12:14:00.911Z,153966.75
2024-02-09T12:16:34.219Z,153970.59
2024-02-09T12:19:09.301Z,153983.59
2024-02-09T12:22:20.546Z,153983.59
2024-02-09T12:25:05.307Z,153962.84
2024-02-09T12:30:32.153Z,153965.41
2024-02-09T12:33:09.705Z,153978.41
2024-02-09T12:35:45.146Z,153987.50
2024-02-09T12:38:27.635Z,153991.41
2024-02-09T12:41:14.527Z,154000.47
2024-02-09T12:44:03.955Z,154000.47
2024-02-09T12:46:39.363Z,154017.38
2024-02-09T12:49:19.520Z,154001.78
2024-02-09T12:52:00.102Z,153970.59
2024-02-09T12:54:31.888Z,153965.41
2024-02-09T12:57:08.158Z,153958.94
2024-02-09T13:00:19.329Z,153964.13
2024-02-09T13:03:05.594Z,153951.13
2024-02-09T13:05:45.097Z,153939.47
2024-02-09T13:08:16.868Z,153929.09
2024-02-09T13:10:48.060Z,153918.72
2024-02-09T13:13:33.395Z,153907.00
2024-02-09T13:16:20.578Z,153890.13
2024-02-09T13:18:50.773Z,153888.84
2024-02-09T13:21:22.792Z,153870.66
2024-02-09T13:23:54.852Z,153878.47
2024-02-09T13:26:26.688Z,153870.66
2024-02-09T13:28:56.720Z,153855.09
2024-02-09T13:31:29.416Z,153857.72
2024-02-09T13:34:08.628Z,153868.09
2024-02-09T13:36:43.994Z,153847.28
2024-02-09T13:39:18.180Z,153830.44
2024-02-09T13:41:48.429Z,153843.44
2024-02-09T13:44:22.993Z,153829.16
2024-02-09T13:46:55.704Z,153809.69
2024-02-09T13:49:30.069Z,153813.59
2024-02-09T13:52:10.508Z,153831.72
2024-02-09T13:54:40.680Z,153834.34
2024-02-09T13:57:19.688Z,153820.06
2024-02-09T13:59:58.418Z,153822.63
2024-02-09T14:02:54.666Z,153820.06
2024-02-09T14:05:40.098Z,153805.78
2024-02-09T14:08:27.724Z,153800.59
2024-02-09T14:11:05.574Z,153803.22
2024-02-09T14:13:42.827Z,153807.06
2024-02-09T14:16:13.111Z,153791.50
2024-02-09T14:18:48.912Z,153785.03
2024-02-09T14:21:18.864Z,153803.22
2024-02-09T14:23:48.753Z,153782.41
2024-02-09T14:26:20.911Z,153810.97
2024-02-09T14:28:50.975Z,153792.78
2024-02-09T14:31:22.197Z,153774.66
2024-02-09T14:33:54.844Z,153779.84
2024-02-09T14:36:26.342Z,153791.50
2024-02-09T14:38:57.964Z,153787.59
2024-02-09T14:41:28.118Z,153764.28
2024-02-09T14:43:59.830Z,153786.31
2024-02-09T14:46:35.949Z,153787.59
2024-02-09T14:49:14.315Z,153782.41
2024-02-09T14:51:50.031Z,153779.84
2024-02-09T14:54:32.805Z,153782.41
2024-02-09T14:57:04.819Z,153803.22
2024-02-09T14:59:35.211Z,153798.03
2024-02-09T15:02:05.345Z,153813.59
2024-02-09T15:04:43.410Z,153782.41
2024-02-09T15:07:15.554Z,153786.31
2024-02-09T15:09:45.594Z,153773.38
2024-02-09T15:12:20.039Z,153764.28
2024-02-09T15:14:51.885Z,153751.28
2024-02-09T15:17:24.467Z,153766.84
2024-02-09T15:19:57.325Z,153768.13
2024-02-09T15:25:12.183Z,153760.38
2024-02-09T15:27:42.150Z,153762.97
2024-02-09T15:30:13.814Z,153757.78
2024-02-09T15:32:44.075Z,153733.13
2024-02-09T15:35:22.514Z,153700.72
2024-02-09T15:37:56.670Z,153707.19
2024-02-09T15:40:27.900Z,153695.47
2024-02-09T15:42:58.265Z,153670.84
2024-02-09T15:45:28.265Z,153652.66
2024-02-09T15:48:00.978Z,153625.44
2024-02-09T15:50:33.568Z,153639.72
2024-02-09T15:53:03.598Z,153602.09
2024-02-09T15:55:33.697Z,153596.91
2024-02-09T15:58:06.347Z,153587.81
2024-02-09T16:00:36.618Z,153591.72
2024-02-09T16:05:44.142Z,153582.63
2024-02-09T16:08:14.437Z,153591.72
2024-02-09T16:10:47.610Z,153589.09
2024-02-09T16:13:17.729Z,153596.91
2024-02-09T16:15:47.815Z,153594.28
2024-02-09T16:18:18.228Z,153576.16
2024-02-09T16:20:51.157Z,153569.66
2024-02-09T16:23:18.635Z,153541.16
2024-02-09T16:25:59.444Z,153561.91
2024-02-09T16:28:38.116Z,153561.91
2024-02-09T16:31:10.098Z,153554.09
2024-02-09T16:33:40.609Z,153528.16
2024-02-09T16:36:23.382Z,153515.19
2024-02-09T16:38:54.704Z,153498.34
2024-02-09T16:41:52.871Z,153485.38
2024-02-09T16:44:25.167Z,153497.06
2024-02-09T16:46:55.365Z,153481.50
2024-02-09T16:49:25.553Z,153491.88
2024-02-09T16:51:58.233Z,153486.69
2024-02-09T16:54:28.977Z,153459.44
2024-02-09T16:56:59.153Z,153485.38
2024-02-09T16:59:29.299Z,153462.06
2024-02-09T17:02:00.948Z,153465.97
2024-02-09T17:04:31.344Z,153473.72
2024-02-09T17:07:04.233Z,153473.72
2024-02-09T17:09:34.645Z,153459.44
2024-02-09T17:12:04.774Z,153476.34
2024-02-09T17:14:34.824Z,153473.72
2024-02-09T17:17:09.212Z,153469.81
2024-02-09T17:19:39.489Z,153455.56
2024-02-09T17:22:12.424Z,153452.97
2024-02-09T17:24:42.786Z,153434.81
2024-02-09T17:27:13.192Z,153438.72
2024-02-09T17:29:43.219Z,153434.81
2024-02-09T17:32:13.542Z,153465.97
2024-02-09T17:34:44.084Z,153458.16
2024-02-09T17:37:16.805Z,153480.19
2024-02-09T17:39:47.650Z,153465.97
2024-02-09T17:42:18.045Z,153476.34
2024-02-09T17:44:48.522Z,153499.63
2024-02-09T17:47:18.511Z,153489.28
2024-02-09T17:49:48.444Z,153485.38
2024-02-09T17:52:21.433Z,153471.16
2024-02-09T17:54:51.494Z,153477.63
2024-02-09T17:57:21.445Z,153454.28
2024-02-09T17:59:51.659Z,153452.97
2024-02-09T18:02:21.931Z,153446.53
2024-02-09T18:04:52.037Z,153484.09
2024-02-09T18:07:25.919Z,153463.34
2024-02-09T18:09:55.870Z,153465.97
2024-02-09T18:12:25.952Z,153463.34
2024-02-09T18:14:59.659Z,153458.16
2024-02-09T18:17:29.426Z,153459.44
2024-02-09T18:19:59.770Z,153463.34
2024-02-09T18:22:32.776Z,153452.97
2024-02-09T18:25:02.764Z,153441.34
2024-02-09T18:27:32.879Z,153452.97
2024-02-09T18:30:02.856Z,153438.72
2024-02-09T18:32:32.873Z,153420.56
2024-02-09T18:35:03.554Z,153416.72
2024-02-09T18:37:36.140Z,153421.88
2024-02-09T18:40:16.801Z,153424.47
2024-02-09T18:42:50.942Z,153407.63
2024-02-09T18:45:37.719Z,153411.53
2024-02-09T19:05:44.393Z,153425.75
2024-02-09T19:08:14.683Z,153450.38
2024-02-09T19:10:45.083Z,153459.44
2024-02-09T19:13:15.984Z,153438.72
2024-02-09T19:15:46.348Z,153440.00
2024-02-09T19:18:19.281Z,153438.72
2024-02-09T19:20:51.986Z,153421.88
2024-02-09T19:23:22.197Z,153402.44
2024-02-09T19:25:52.457Z,153398.53
2024-02-09T19:28:22.686Z,153384.28
2024-02-09T19:30:52.686Z,153376.50
2024-02-09T19:33:24.478Z,153362.28
2024-02-09T19:35:57.133Z,153335.00
2024-02-09T19:38:27.152Z,153341.44
2024-02-09T19:40:58.145Z,153315.53
2024-02-09T19:43:28.143Z,153298.72
2024-02-09T19:46:01.217Z,153268.91
2024-02-09T19:48:31.372Z,153258.56
2024-02-09T19:51:31.402Z,153235.22
2024-02-09T19:54:27.649Z,153223.59
2024-02-09T19:57:19.900Z,153195.06
2024-02-09T19:59:54.263Z,153167.84
2024-02-09T20:02:38.818Z,153162.66
2024-02-09T20:05:20.211Z,153154.91
2024-02-09T20:08:16.782Z,153149.75
2024-02-09T20:11:03.868Z,153140.66
2024-02-09T20:13:35.561Z,153143.22
2024-02-09T20:16:11.204Z,153130.31
2024-02-09T20:18:45.526Z,153139.38
2024-02-09T20:21:41.170Z,153141.94
2024-02-09T20:24:15.444Z,153130.31
2024-02-09T20:27:00.033Z,153143.22
2024-02-09T20:29:40.052Z,153122.53
2024-02-09T20:32:23.547Z,153116.06
2024-02-09T20:34:59.554Z,153114.78
2024-02-09T20:37:42.155Z,153097.91
2024-02-09T20:40:24.114Z,153103.09
2024-02-09T20:43:11.034Z,153101.81
2024-02-09T20:45:55.234Z,153136.78
2024-02-09T20:48:35.588Z,153182.09
2024-02-09T20:51:22.818Z,153248.19
2024-02-09T20:54:01.341Z,153259.84
2024-02-09T20:56:50.939Z,153333.69
2024-02-09T20:59:33.814Z,153359.66
2024-02-09T21:02:18.475Z,153366.13
2024-02-09T21:04:53.442Z,153390.75
2024-02-09T21:07:24.563Z,153406.28
2024-02-09T21:10:09.898Z,153427.06
2024-02-09T21:12:50.921Z,153455.56
2024-02-09T21:15:22.684Z,153421.88
2024-02-09T21:17:56.530Z,153443.91
2024-02-09T21:20:28.900Z,153455.56
2024-02-09T21:22:59.869Z,153442.63
2024-02-09T21:25:32.754Z,153459.44
2024-02-09T21:28:15.689Z,153458.16
2024-02-09T21:31:05.436Z,153480.19
2024-02-09T21:33:45.664Z,153467.25
2024-02-09T21:36:21.073Z,153459.44
2024-02-09T21:39:05.056Z,153473.72
2024-02-09T21:41:42.539Z,153458.16
2024-02-09T21:44:25.291Z,153481.50
2024-02-09T21:47:03.809Z,153464.63
2024-02-09T21:49:42.203Z,153450.38
2024-02-09T21:52:17.916Z,153472.44
2024-02-09T21:55:14.805Z,153460.72
2024-02-09T21:57:55.408Z,153446.53
2024-02-09T22:00:31.433Z,153416.72
2024-02-09T22:03:32.700Z,153415.38
2024-02-09T22:06:29.282Z,153397.25
2024-02-09T22:09:33.623Z,153375.19
2024-02-09T22:12:37.992Z,153371.31
2024-02-09T22:15:28.044Z,153370.03
2024-02-09T22:18:24.208Z,153359.66
2024-02-09T22:21:21.736Z,153367.47
2024-02-09T22:24:07.502Z,153368.75
2024-02-09T22:26:50.881Z,153360.94
2024-02-09T22:30:09.581Z,153349.28
2024-02-09T22:32:59.064Z,153337.59
2024-02-09T22:35:53.635Z,153307.78
2024-02-09T22:38:38.671Z,153301.28
2024-02-09T22:41:23.826Z,153276.66
2024-02-09T22:44:12.364Z,153252.03
2024-02-09T22:46:53.935Z,153242.97
2024-02-09T22:49:49.725Z,153206.72
2024-02-09T22:52:42.546Z,153195.06
2024-02-09T22:55:39.179Z,153198.97
2024-02-09T22:58:14.507Z,153167.84
2024-02-09T23:00:53.722Z,153162.66
2024-02-09T23:03:44.463Z,153178.19
2024-02-09T23:06:28.993Z,153173.03
2024-02-09T23:09:20.781Z,153167.84
2024-02-09T23:12:09.238Z,153170.47
2024-02-09T23:14:41.045Z,153170.47
2024-02-09T23:17:11.187Z,153178.19
2024-02-09T23:19:41.387Z,153157.47
2024-02-09T23:22:16.033Z,153154.91
2024-02-09T23:24:51.107Z,153156.19
2024-02-09T23:27:22.267Z,153140.66
2024-02-09T23:29:53.248Z,153132.88
2024-02-09T23:32:23.544Z,153121.25
2024-02-09T23:34:54.578Z,153109.59
2024-02-09T23:37:24.783Z,153101.81
2024-02-09T23:39:57.809Z,153088.84
2024-02-09T23:42:28.246Z,153085.00
2024-02-09T23:44:58.462Z,153070.75
2024-02-09T23:47:29.037Z,153049.97
2024-02-09T23:50:00.649Z,153040.97
2024-02-09T23:52:31.006Z,153038.34
2024-02-09T23:55:03.798Z,153025.44
2024-02-09T23:57:34.269Z,153031.88
